sensor_id;sensor_type;location;lat;lon;timestamp;pressure;altitude;pressure_sealevel;temperature;humidity
33163;BME280;29282;45.656;11.302;2024-01-16T00:02:25;97150.03;;;18.64;44.27
33163;BME280;29282;45.656;11.302;2024-01-16T00:04:53;97148.44;;;18.63;44.24
33163;BME280;29282;45.656;11.302;2024-01-16T00:07:18;97154.31;;;18.61;44.16
33163;BME280;29282;45.656;11.302;2024-01-16T00:09:44;97157.06;;;18.61;44.35
33163;BME280;29282;45.656;11.302;2024-01-16T00:12:10;97158.19;;;18.60;44.21
33163;BME280;29282;45.656;11.302;2024-01-16T00:14:36;97161.66;;;18.57;44.33
33163;BME280;29282;45.656;11.302;2024-01-16T00:17:02;97163.59;;;18.57;44.22
33163;BME280;29282;45.656;11.302;2024-01-16T00:19:28;97169.47;;;18.55;44.21
33163;BME280;29282;45.656;11.302;2024-01-16T00:21:53;97163.53;;;18.53;44.31
33163;BME280;29282;45.656;11.302;2024-01-16T00:24:18;97170.59;;;18.54;44.22
33163;BME280;29282;45.656;11.302;2024-01-16T00:26:44;97169.03;;;18.53;44.25
33163;BME280;29282;45.656;11.302;2024-01-16T00:29:10;97170.53;;;18.50;44.26
33163;BME280;29282;45.656;11.302;2024-01-16T00:31:38;97169.75;;;18.50;44.27
33163;BME280;29282;45.656;11.302;2024-01-16T00:34:03;97173.66;;;18.49;44.18
33163;BME280;29282;45.656;11.302;2024-01-16T00:36:29;97178.34;;;18.48;43.88
33163;BME280;29282;45.656;11.302;2024-01-16T00:38:55;97181.44;;;18.47;44.10
33163;BME280;29282;45.656;11.302;2024-01-16T00:41:21;97182.59;;;18.46;44.17
33163;BME280;29282;45.656;11.302;2024-01-16T00:43:47;97188.09;;;18.46;43.98
33163;BME280;29282;45.656;11.302;2024-01-16T00:46:12;97189.25;;;18.45;43.99
33163;BME280;29282;45.656;11.302;2024-01-16T00:48:38;97191.56;;;18.43;44.27
33163;BME280;29282;45.656;11.302;2024-01-16T00:51:04;97199.00;;;18.42;43.99
33163;BME280;29282;45.656;11.302;2024-01-16T00:53:29;97197.03;;;18.43;43.99
33163;BME280;29282;45.656;11.302;2024-01-16T00:55:55;97203.69;;;18.42;44.00
33163;BME280;29282;45.656;11.302;2024-01-16T00:58:24;97206.78;;;18.40;43.97
33163;BME280;29282;45.656;11.302;2024-01-16T01:00:52;97209.50;;;18.40;43.95
33163;BME280;29282;45.656;11.302;2024-01-16T01:03:18;97213.88;;;18.41;44.03
33163;BME280;29282;45.656;11.302;2024-01-16T01:05:43;97216.94;;;18.40;43.98
33163;BME280;29282;45.656;11.302;2024-01-16T01:08:09;97214.66;;;18.42;43.91
33163;BME280;29282;45.656;11.302;2024-01-16T01:10:34;97225.25;;;18.43;43.91
33163;BME280;29282;45.656;11.302;2024-01-16T01:13:00;97228.78;;;18.44;43.97
33163;BME280;29282;45.656;11.302;2024-01-16T01:15:26;97234.72;;;18.46;43.59
33163;BME280;29282;45.656;11.302;2024-01-16T01:17:51;97225.31;;;18.47;43.62
33163;BME280;29282;45.656;11.302;2024-01-16T01:20:18;97229.22;;;18.46;43.65
33163;BME280;29282;45.656;11.302;2024-01-16T01:22:44;97237.09;;;18.47;43.68
33163;BME280;29282;45.656;11.302;2024-01-16T01:25:11;97243.00;;;18.49;43.44
33163;BME280;29282;45.656;11.302;2024-01-16T01:27:37;97250.06;;;18.50;43.39
33163;BME280;29282;45.656;11.302;2024-01-16T01:30:03;97252.03;;;18.50;43.49
33163;BME280;29282;45.656;11.302;2024-01-16T01:32:29;97261.88;;;18.51;43.52
33163;BME280;29282;45.656;11.302;2024-01-16T01:34:54;97260.72;;;18.52;43.43
33163;BME280;29282;45.656;11.302;2024-01-16T01:37:20;97268.56;;;18.53;43.48
33163;BME280;29282;45.656;11.302;2024-01-16T01:39:45;97276.78;;;18.53;43.23
33163;BME280;29282;45.656;11.302;2024-01-16T01:42:11;97281.47;;;18.53;43.47
33163;BME280;29282;45.656;11.302;2024-01-16T01:44:36;97284.59;;;18.51;43.31
33163;BME280;29282;45.656;11.302;2024-01-16T01:47:03;97289.72;;;18.53;43.41
33163;BME280;29282;45.656;11.302;2024-01-16T01:49:31;97292.84;;;18.51;43.22
33163;BME280;29282;45.656;11.302;2024-01-16T01:51:57;97290.50;;;18.53;43.18
33163;BME280;29282;45.656;11.302;2024-01-16T01:54:24;97296.00;;;18.53;43.11
33163;BME280;29282;45.656;11.302;2024-01-16T01:56:54;97294.84;;;18.54;43.09
33163;BME280;29282;45.656;11.302;2024-01-16T01:59:19;97290.88;;;18.52;43.26
33163;BME280;29282;45.656;11.302;2024-01-16T02:01:48;97290.09;;;18.51;43.22
33163;BME280;29282;45.656;11.302;2024-01-16T02:04:15;97293.63;;;18.52;43.18
33163;BME280;29282;45.656;11.302;2024-01-16T02:06:42;97297.94;;;18.53;43.14
33163;BME280;29282;45.656;11.302;2024-01-16T02:09:10;97307.75;;;18.54;42.96
33163;BME280;29282;45.656;11.302;2024-01-16T02:11:35;97314.84;;;18.55;43.06
33163;BME280;29282;45.656;11.302;2024-01-16T02:14:01;97312.91;;;18.55;43.05
33163;BME280;29282;45.656;11.302;2024-01-16T02:16:26;97315.63;;;18.55;43.00
33163;BME280;29282;45.656;11.302;2024-01-16T02:18:55;97312.09;;;18.55;42.87
33163;BME280;29282;45.656;11.302;2024-01-16T02:21:21;97314.84;;;18.55;43.08
33163;BME280;29282;45.656;11.302;2024-01-16T02:23:47;97322.28;;;18.54;42.83
33163;BME280;29282;45.656;11.302;2024-01-16T02:26:17;97331.31;;;18.55;42.97
33163;BME280;29282;45.656;11.302;2024-01-16T02:28:43;97327.78;;;18.54;42.82
33163;BME280;29282;45.656;11.302;2024-01-16T02:31:09;97341.84;;;18.53;42.85
33163;BME280;29282;45.656;11.302;2024-01-16T02:33:35;97332.81;;;18.52;42.93
33163;BME280;29282;45.656;11.302;2024-01-16T02:36:00;97345.38;;;18.53;42.85
33163;BME280;29282;45.656;11.302;2024-01-16T02:38:26;97343.00;;;18.52;42.75
33163;BME280;29282;45.656;11.302;2024-01-16T02:40:51;97346.91;;;18.51;42.86
33163;BME280;29282;45.656;11.302;2024-01-16T02:43:17;97355.91;;;18.51;42.78
33163;BME280;29282;45.656;11.302;2024-01-16T02:45:42;97353.50;;;18.50;42.88
33163;BME280;29282;45.656;11.302;2024-01-16T02:48:08;97351.16;;;18.48;42.82
33163;BME280;29282;45.656;11.302;2024-01-16T02:50:34;97362.91;;;18.49;42.86
33163;BME280;29282;45.656;11.302;2024-01-16T02:52:59;97362.91;;;18.49;42.70
33163;BME280;29282;45.656;11.302;2024-01-16T02:55:25;97369.56;;;18.48;42.78
33163;BME280;29282;45.656;11.302;2024-01-16T02:57:50;97378.13;;;18.46;43.21
33163;BME280;29282;45.656;11.302;2024-01-16T03:00:16;97394.25;;;18.48;42.88
33163;BME280;29282;45.656;11.302;2024-01-16T03:02:43;97391.91;;;18.50;42.69
33163;BME280;29282;45.656;11.302;2024-01-16T03:05:09;97398.91;;;18.47;42.89
33163;BME280;29282;45.656;11.302;2024-01-16T03:07:36;97400.06;;;18.46;42.84
33163;BME280;29282;45.656;11.302;2024-01-16T03:10:02;97403.59;;;18.47;42.56
33163;BME280;29282;45.656;11.302;2024-01-16T03:12:28;97405.28;;;18.51;42.68
33163;BME280;29282;45.656;11.302;2024-01-16T03:14:53;97406.41;;;18.50;42.70
33163;BME280;29282;45.656;11.302;2024-01-16T03:17:19;97418.09;;;18.47;42.71
33163;BME280;29282;45.656;11.302;2024-01-16T03:19:45;97414.56;;;18.47;42.58
33163;BME280;29282;45.656;11.302;2024-01-16T03:22:10;97420.50;;;18.49;42.66
33163;BME280;29282;45.656;11.302;2024-01-16T03:24:36;97418.09;;;18.47;42.56
33163;BME280;29282;45.656;11.302;2024-01-16T03:27:01;97427.16;;;18.48;42.42
33163;BME280;29282;45.656;11.302;2024-01-16T03:29:27;97426.34;;;18.47;42.50
33163;BME280;29282;45.656;11.302;2024-01-16T03:31:52;97437.31;;;18.47;42.80
33163;BME280;29282;45.656;11.302;2024-01-16T03:34:18;97440.41;;;18.46;42.60
33163;BME280;29282;45.656;11.302;2024-01-16T03:36:44;97443.94;;;18.46;42.52
33163;BME280;29282;45.656;11.302;2024-01-16T03:39:10;97446.28;;;18.44;42.57
33163;BME280;29282;45.656;11.302;2024-01-16T03:41:37;97449.81;;;18.45;42.53
33163;BME280;29282;45.656;11.302;2024-01-16T03:44:03;97456.06;;;18.45;42.23
33163;BME280;29282;45.656;11.302;2024-01-16T03:46:28;97454.13;;;18.46;42.40
33163;BME280;29282;45.656;11.302;2024-01-16T03:48:54;97457.25;;;18.44;42.59
33163;BME280;29282;45.656;11.302;2024-01-16T03:51:20;97456.88;;;18.46;42.55
33163;BME280;29282;45.656;11.302;2024-01-16T03:53:46;97460.31;;;18.43;42.42
33163;BME280;29282;45.656;11.302;2024-01-16T03:56:11;97460.31;;;18.43;42.41
33163;BME280;29282;45.656;11.302;2024-01-16T03:58:39;97465.47;;;18.44;42.56
33163;BME280;29282;45.656;11.302;2024-01-16T04:01:05;97470.94;;;18.44;42.37
33163;BME280;29282;45.656;11.302;2024-01-16T04:03:30;97481.09;;;18.44;42.40
33163;BME280;29282;45.656;11.302;2024-01-16T04:05:56;97475.63;;;18.44;42.49
33163;BME280;29282;45.656;11.302;2024-01-16T04:08:21;97469.34;;;18.43;42.32
33163;BME280;29282;45.656;11.302;2024-01-16T04:10:47;97467.38;;;18.44;42.26
33163;BME280;29282;45.656;11.302;2024-01-16T04:13:12;97473.25;;;18.42;42.23
33163;BME280;29282;45.656;11.302;2024-01-16T04:15:38;97477.16;;;18.41;42.39
33163;BME280;29282;45.656;11.302;2024-01-16T04:18:04;97477.94;;;18.42;42.55
33163;BME280;29282;45.656;11.302;2024-01-16T04:20:30;97481.47;;;18.42;42.36
33163;BME280;29282;45.656;11.302;2024-01-16T04:22:56;97481.09;;;18.44;42.44
33163;BME280;29282;45.656;11.302;2024-01-16T04:25:23;97480.31;;;18.43;42.28
33163;BME280;29282;45.656;11.302;2024-01-16T04:27:48;97489.69;;;18.42;42.30
33163;BME280;29282;45.656;11.302;2024-01-16T04:30:14;97496.34;;;18.41;42.31
33163;BME280;29282;45.656;11.302;2024-01-16T04:32:39;97490.84;;;18.41;42.19
33163;BME280;29282;45.656;11.302;2024-01-16T04:35:05;97499.09;;;18.41;42.30
33163;BME280;29282;45.656;11.302;2024-01-16T04:37:31;97507.66;;;18.40;42.46
33163;BME280;29282;45.656;11.302;2024-01-16T04:39:56;97507.66;;;18.40;42.42
33163;BME280;29282;45.656;11.302;2024-01-16T04:42:23;97509.22;;;18.41;42.23
33163;BME280;29282;45.656;11.302;2024-01-16T04:44:49;97507.31;;;18.41;42.32
33163;BME280;29282;45.656;11.302;2024-01-16T04:47:17;97510.84;;;18.42;42.33
33163;BME280;29282;45.656;11.302;2024-01-16T04:49:44;97514.38;;;18.42;42.06
33163;BME280;29282;45.656;11.302;2024-01-16T04:52:09;97509.59;;;18.39;42.17
33163;BME280;29282;45.656;11.302;2024-01-16T04:54:35;97520.56;;;18.39;42.24
33163;BME280;29282;45.656;11.302;2024-01-16T04:57:00;97525.25;;;18.39;42.16
33163;BME280;29282;45.656;11.302;2024-01-16T04:59:26;97527.22;;;18.38;42.19
33163;BME280;29282;45.656;11.302;2024-01-16T05:01:51;97520.94;;;18.38;42.16
33163;BME280;29282;45.656;11.302;2024-01-16T05:04:17;97524.47;;;18.38;42.06
33163;BME280;29282;45.656;11.302;2024-01-16T05:06:42;97529.59;;;18.40;42.20
33163;BME280;29282;45.656;11.302;2024-01-16T05:09:08;97530.75;;;18.39;42.15
33163;BME280;29282;45.656;11.302;2024-01-16T05:11:37;97537.03;;;18.39;42.11
33163;BME280;29282;45.656;11.302;2024-01-16T05:14:02;97536.22;;;18.39;42.01
33163;BME280;29282;45.656;11.302;2024-01-16T05:16:28;97538.97;;;18.39;42.02
33163;BME280;29282;45.656;11.302;2024-01-16T05:18:54;97542.88;;;18.38;42.02
33163;BME280;29282;45.656;11.302;2024-01-16T05:21:20;97551.53;;;18.40;42.12
33163;BME280;29282;45.656;11.302;2024-01-16T05:23:46;97551.91;;;18.38;41.96
33163;BME280;29282;45.656;11.302;2024-01-16T05:26:11;97552.69;;;18.39;42.00
33163;BME280;29282;45.656;11.302;2024-01-16T05:28:38;97545.63;;;18.38;42.27
33163;BME280;29282;45.656;11.302;2024-01-16T05:31:04;97545.63;;;18.38;42.00
33163;BME280;29282;45.656;11.302;2024-01-16T05:33:29;97553.47;;;18.39;42.00
33163;BME280;29282;45.656;11.302;2024-01-16T05:35:57;97558.97;;;18.39;42.05
33163;BME280;29282;45.656;11.302;2024-01-16T05:38:22;97557.38;;;18.38;42.09
33163;BME280;29282;45.656;11.302;2024-01-16T05:40:48;97564.44;;;18.39;41.99
33163;BME280;29282;45.656;11.302;2024-01-16T05:43:13;97559.75;;;18.40;42.07
33163;BME280;29282;45.656;11.302;2024-01-16T05:45:39;97566.41;;;18.39;42.19
33163;BME280;29282;45.656;11.302;2024-01-16T05:48:05;97566.41;;;18.39;41.99
33163;BME280;29282;45.656;11.302;2024-01-16T05:50:33;97564.44;;;18.39;41.93
33163;BME280;29282;45.656;11.302;2024-01-16T05:52:59;97560.56;;;18.40;41.90
33163;BME280;29282;45.656;11.302;2024-01-16T05:55:24;97567.97;;;18.40;41.85
33163;BME280;29282;45.656;11.302;2024-01-16T05:57:50;97573.47;;;18.40;42.09
33163;BME280;29282;45.656;11.302;2024-01-16T06:00:15;97578.25;;;18.43;41.88
33163;BME280;29282;45.656;11.302;2024-01-16T06:02:43;97587.38;;;18.47;41.70
33163;BME280;29282;45.656;11.302;2024-01-16T06:05:09;97594.91;;;18.50;41.68
33163;BME280;29282;45.656;11.302;2024-01-16T06:07:34;97586.59;;;18.62;42.20
33163;BME280;29282;45.656;11.302;2024-01-16T06:10:00;97589.72;;;18.76;41.21
33163;BME280;29282;45.656;11.302;2024-01-16T06:12:25;97593.19;;;18.89;41.33
33163;BME280;29282;45.656;11.302;2024-01-16T06:14:51;97597.72;;;18.97;41.18
33163;BME280;29282;45.656;11.302;2024-01-16T06:17:16;97590.78;;;19.04;40.77
33163;BME280;29282;45.656;11.302;2024-01-16T06:19:42;97597.91;;;19.05;40.71
33163;BME280;29282;45.656;11.302;2024-01-16T06:22:07;97604.25;;;19.09;40.75
33163;BME280;29282;45.656;11.302;2024-01-16T06:24:37;97604.25;;;19.09;40.89
33163;BME280;29282;45.656;11.302;2024-01-16T06:27:05;97607.78;;;19.09;40.70
33163;BME280;29282;45.656;11.302;2024-01-16T06:29:31;97606.22;;;19.08;40.87
33163;BME280;29282;45.656;11.302;2024-01-16T06:31:57;97603.00;;;19.06;40.96
33163;BME280;29282;45.656;11.302;2024-01-16T06:34:22;97611.69;;;19.08;40.78
33163;BME280;29282;45.656;11.302;2024-01-16T06:36:48;97614.00;;;19.06;40.81
33163;BME280;29282;45.656;11.302;2024-01-16T06:39:14;97617.91;;;19.05;40.82
33163;BME280;29282;45.656;11.302;2024-01-16T06:41:41;97620.28;;;19.07;40.74
33163;BME280;29282;45.656;11.302;2024-01-16T06:44:06;97623.81;;;19.07;40.81
33163;BME280;29282;45.656;11.302;2024-01-16T06:46:32;97626.69;;;19.11;41.38
33163;BME280;29282;45.656;11.302;2024-01-16T06:48:57;97634.00;;;19.22;40.69
33163;BME280;29282;45.656;11.302;2024-01-16T06:51:23;97631.09;;;19.31;40.74
33163;BME280;29282;45.656;11.302;2024-01-16T06:53:48;97626.91;;;19.37;40.58
33163;BME280;29282;45.656;11.302;2024-01-16T06:56:14;97630.97;;;19.43;40.72
33163;BME280;29282;45.656;11.302;2024-01-16T06:58:39;97633.00;;;19.46;40.44
33163;BME280;29282;45.656;11.302;2024-01-16T07:01:05;97624.84;;;19.50;40.45
33163;BME280;29282;45.656;11.302;2024-01-16T07:03:30;97627.69;;;19.54;40.53
33163;BME280;29282;45.656;11.302;2024-01-16T07:05:56;97629.34;;;19.58;40.33
33163;BME280;29282;45.656;11.302;2024-01-16T07:08:21;97639.97;;;19.60;40.18
33163;BME280;29282;45.656;11.302;2024-01-16T07:10:47;97637.88;;;19.69;40.19
33163;BME280;29282;45.656;11.302;2024-01-16T07:13:12;97637.53;;;19.70;40.24
33163;BME280;29282;45.656;11.302;2024-01-16T07:15:39;97636.34;;;19.71;40.24
33163;BME280;29282;45.656;11.302;2024-01-16T07:18:05;97651.25;;;19.70;40.49
33163;BME280;29282;45.656;11.302;2024-01-16T07:20:30;97649.38;;;19.75;40.28
33163;BME280;29282;45.656;11.302;2024-01-16T07:22:56;97647.44;;;19.75;41.00
33163;BME280;29282;45.656;11.302;2024-01-16T07:25:21;97657.63;;;19.75;40.33
33163;BME280;29282;45.656;11.302;2024-01-16T07:27:47;97666.75;;;19.79;40.36
33163;BME280;29282;45.656;11.302;2024-01-16T07:30:15;97672.69;;;19.81;40.36
33163;BME280;29282;45.656;11.302;2024-01-16T07:32:41;97675.06;;;19.82;40.19
33163;BME280;29282;45.656;11.302;2024-01-16T07:35:06;97677.03;;;19.82;40.32
33163;BME280;29282;45.656;11.302;2024-01-16T07:37:32;97678.59;;;19.83;40.30
33163;BME280;29282;45.656;11.302;2024-01-16T07:40:00;97673.81;;;19.80;40.52
33163;BME280;29282;45.656;11.302;2024-01-16T07:42:26;97684.09;;;19.83;40.31
33163;BME280;29282;45.656;11.302;2024-01-16T07:44:59;97683.69;;;19.81;40.50
33163;BME280;29282;45.656;11.302;2024-01-16T07:47:24;97689.97;;;19.81;40.58
33163;BME280;29282;45.656;11.302;2024-01-16T07:49:49;97691.94;;;19.81;40.68
33163;BME280;29282;45.656;11.302;2024-01-16T07:52:15;97693.06;;;19.80;41.05
33163;BME280;29282;45.656;11.302;2024-01-16T07:54:41;97692.50;;;19.70;40.82
33163;BME280;29282;45.656;11.302;2024-01-16T07:57:06;97685.81;;;19.71;40.70
33163;BME280;29282;45.656;11.302;2024-01-16T07:59:31;97695.56;;;19.69;40.94
33163;BME280;29282;45.656;11.302;2024-01-16T08:01:57;97687.41;;;19.73;41.08
33163;BME280;29282;45.656;11.302;2024-01-16T08:04:22;97681.50;;;19.70;41.22
33163;BME280;29282;45.656;11.302;2024-01-16T08:06:48;97695.66;;;19.73;40.81
33163;BME280;29282;45.656;11.302;2024-01-16T08:09:13;97696.03;;;19.71;40.97
33163;BME280;29282;45.656;11.302;2024-01-16T08:11:39;97699.13;;;19.69;40.98
33163;BME280;29282;45.656;11.302;2024-01-16T08:14:07;97701.44;;;19.67;41.32
33163;BME280;29282;45.656;11.302;2024-01-16T08:16:33;97706.16;;;19.67;41.01
33163;BME280;29282;45.656;11.302;2024-01-16T08:18:59;97709.22;;;19.65;41.38
33163;BME280;29282;45.656;11.302;2024-01-16T08:21:24;97716.41;;;19.70;41.03
33163;BME280;29282;45.656;11.302;2024-01-16T08:23:50;97724.31;;;19.71;40.96
33163;BME280;29282;45.656;11.302;2024-01-16T08:26:15;97724.38;;;19.75;40.86
33163;BME280;29282;45.656;11.302;2024-01-16T08:28:41;97730.34;;;19.77;40.75
33163;BME280;29282;45.656;11.302;2024-01-16T08:31:06;97724.84;;;19.77;40.98
33163;BME280;29282;45.656;11.302;2024-01-16T08:33:32;97731.03;;;19.74;40.90
33163;BME280;29282;45.656;11.302;2024-01-16T08:35:57;97732.47;;;19.68;41.06
33163;BME280;29282;45.656;11.302;2024-01-16T08:38:23;97741.06;;;19.66;41.02
33163;BME280;29282;45.656;11.302;2024-01-16T08:40:48;97740.94;;;19.63;41.14
33163;BME280;29282;45.656;11.302;2024-01-16T08:43:14;97744.50;;;19.63;41.10
33163;BME280;29282;45.656;11.302;2024-01-16T08:45:39;97740.84;;;19.59;41.25
33163;BME280;29282;45.656;11.302;2024-01-16T08:48:05;97745.94;;;19.57;41.43
33163;BME280;29282;45.656;11.302;2024-01-16T08:50:30;97748.22;;;19.55;41.29
33163;BME280;29282;45.656;11.302;2024-01-16T08:52:56;97751.75;;;19.56;41.33
33163;BME280;29282;45.656;11.302;2024-01-16T08:55:21;97748.94;;;19.52;41.44
33163;BME280;29282;45.656;11.302;2024-01-16T08:57:47;97755.13;;;19.49;41.50
33163;BME280;29282;45.656;11.302;2024-01-16T09:00:13;97770.38;;;19.46;41.51
33163;BME280;29282;45.656;11.302;2024-01-16T09:02:39;97774.97;;;19.42;42.41
33163;BME280;29282;45.656;11.302;2024-01-16T09:05:04;97777.72;;;19.42;41.64
33163;BME280;29282;45.656;11.302;2024-01-16T09:07:30;97774.88;;;19.39;41.76
33163;BME280;29282;45.656;11.302;2024-01-16T09:09:55;97779.13;;;19.36;41.76
33163;BME280;29282;45.656;11.302;2024-01-16T09:12:21;97789.31;;;19.36;42.17
33163;BME280;29282;45.656;11.302;2024-01-16T09:14:46;97786.16;;;19.34;42.17
33163;BME280;29282;45.656;11.302;2024-01-16T09:17:12;97783.75;;;19.32;42.57
33163;BME280;29282;45.656;11.302;2024-01-16T09:19:37;97788.06;;;19.33;41.89
33163;BME280;29282;45.656;11.302;2024-01-16T09:22:03;97782.16;;;19.31;41.92
33163;BME280;29282;45.656;11.302;2024-01-16T09:24:30;97793.13;;;19.31;42.01
33163;BME280;29282;45.656;11.302;2024-01-16T09:26:55;97785.22;;;19.30;41.83
33163;BME280;29282;45.656;11.302;2024-01-16T09:29:21;97783.19;;;19.27;42.04
33163;BME280;29282;45.656;11.302;2024-01-16T09:31:50;97787.56;;;19.28;42.17
33163;BME280;29282;45.656;11.302;2024-01-16T09:34:16;97789.06;;;19.25;42.47
33163;BME280;29282;45.656;11.302;2024-01-16T09:36:42;97799.25;;;19.24;41.98
33163;BME280;29282;45.656;11.302;2024-01-16T09:39:08;97790.53;;;19.22;42.02
33163;BME280;29282;45.656;11.302;2024-01-16T09:41:37;97796.84;;;19.23;42.17
33163;BME280;29282;45.656;11.302;2024-01-16T09:44:04;97797.63;;;19.23;41.92
33163;BME280;29282;45.656;11.302;2024-01-16T09:46:31;97810.94;;;19.21;42.10
33163;BME280;29282;45.656;11.302;2024-01-16T09:48:59;97809.34;;;19.20;42.09
33163;BME280;29282;45.656;11.302;2024-01-16T09:51:25;97808.09;;;19.18;42.06
33163;BME280;29282;45.656;11.302;2024-01-16T09:53:50;97806.13;;;19.18;42.14
33163;BME280;29282;45.656;11.302;2024-01-16T09:56:21;97806.13;;;19.18;42.03
33163;BME280;29282;45.656;11.302;2024-01-16T09:58:48;97807.72;;;19.19;41.92
33163;BME280;29282;45.656;11.302;2024-01-16T10:01:15;97803.03;;;19.20;41.82
33163;BME280;29282;45.656;11.302;2024-01-16T10:03:44;97807.47;;;19.24;42.15
33163;BME280;29282;45.656;11.302;2024-01-16T10:06:10;97809.53;;;19.28;41.95
33163;BME280;29282;45.656;11.302;2024-01-16T10:08:37;97804.72;;;19.24;41.90
33163;BME280;29282;45.656;11.302;2024-01-16T10:11:06;97808.72;;;19.27;41.73
33163;BME280;29282;45.656;11.302;2024-01-16T10:13:33;97808.72;;;19.27;41.85
33163;BME280;29282;45.656;11.302;2024-01-16T10:15:58;97806.31;;;19.25;41.87
33163;BME280;29282;45.656;11.302;2024-01-16T10:18:29;97803.94;;;19.24;41.76
33163;BME280;29282;45.656;11.302;2024-01-16T10:21:00;97796.75;;;19.19;41.92
33163;BME280;29282;45.656;11.302;2024-01-16T10:23:30;97798.69;;;19.19;41.86
33163;BME280;29282;45.656;11.302;2024-01-16T10:28:30;97790.00;;;19.17;41.87
33163;BME280;29282;45.656;11.302;2024-01-16T10:31:10;97801.34;;;19.15;41.96
33163;BME280;29282;45.656;11.302;2024-01-16T10:33:37;97800.88;;;19.13;41.98
33163;BME280;29282;45.656;11.302;2024-01-16T10:36:12;97802.41;;;19.11;41.92
33163;BME280;29282;45.656;11.302;2024-01-16T10:38:42;97796.47;;;19.09;42.17
33163;BME280;29282;45.656;11.302;2024-01-16T10:41:16;97804.22;;;19.07;42.02
33163;BME280;29282;45.656;11.302;2024-01-16T10:43:43;97799.44;;;19.04;42.21
33163;BME280;29282;45.656;11.302;2024-01-16T10:46:15;97801.84;;;19.05;42.06
33163;BME280;29282;45.656;11.302;2024-01-16T10:48:45;97794.31;;;19.02;42.15
33163;BME280;29282;45.656;11.302;2024-01-16T10:51:14;97790.31;;;18.99;42.20
33163;BME280;29282;45.656;11.302;2024-01-16T10:53:42;97798.91;;;18.98;42.13
33163;BME280;29282;45.656;11.302;2024-01-16T10:56:12;97799.25;;;18.96;42.23
33163;BME280;29282;45.656;11.302;2024-01-16T10:58:42;97808.63;;;18.95;42.44
33163;BME280;29282;45.656;11.302;2024-01-16T11:01:11;97811.72;;;18.94;42.32
33163;BME280;29282;45.656;11.302;2024-01-16T11:03:47;97809.34;;;18.92;42.30
33163;BME280;29282;45.656;11.302;2024-01-16T11:06:15;97803.06;;;18.92;42.39
33163;BME280;29282;45.656;11.302;2024-01-16T11:08:42;97799.84;;;18.90;42.38
33163;BME280;29282;45.656;11.302;2024-01-16T11:11:08;97807.66;;;18.88;42.44
33163;BME280;29282;45.656;11.302;2024-01-16T11:13:35;97806.13;;;18.90;42.29
33163;BME280;29282;45.656;11.302;2024-01-16T11:16:02;97811.28;;;18.92;42.36
33163;BME280;29282;45.656;11.302;2024-01-16T11:18:30;97807.28;;;18.89;42.39
33163;BME280;29282;45.656;11.302;2024-01-16T11:20:58;97800.66;;;18.90;42.32
33163;BME280;29282;45.656;11.302;2024-01-16T11:23:24;97800.22;;;18.88;42.28
33163;BME280;29282;45.656;11.302;2024-01-16T11:25:52;97793.47;;;18.86;42.49
33163;BME280;29282;45.656;11.302;2024-01-16T11:28:18;97793.47;;;18.86;42.38
33163;BME280;29282;45.656;11.302;2024-01-16T11:30:45;97789.56;;;18.87;42.36
33163;BME280;29282;45.656;11.302;2024-01-16T11:35:58;97793.47;;;18.86;42.42
33163;BME280;29282;45.656;11.302;2024-01-16T11:38:25;97787.50;;;18.84;42.41
33163;BME280;29282;45.656;11.302;2024-01-16T11:40:53;97784.34;;;18.82;42.46
33163;BME280;29282;45.656;11.302;2024-01-16T11:43:39;97779.97;;;18.81;42.36
33163;BME280;29282;45.656;11.302;2024-01-16T11:46:06;97769.38;;;18.79;42.52
33163;BME280;29282;45.656;11.302;2024-01-16T11:48:35;97768.22;;;18.80;42.39
33163;BME280;29282;45.656;11.302;2024-01-16T11:51:24;97760.34;;;18.78;42.48
33163;BME280;29282;45.656;11.302;2024-01-16T11:53:50;97755.03;;;18.86;42.35
33163;BME280;29282;45.656;11.302;2024-01-16T12:01:30;97744.56;;;19.19;42.02
33163;BME280;29282;45.656;11.302;2024-01-16T12:04:06;97745.28;;;19.32;41.64
33163;BME280;29282;45.656;11.302;2024-01-16T12:06:34;97747.78;;;19.37;41.63
33163;BME280;29282;45.656;11.302;2024-01-16T12:11:39;97742.72;;;19.39;41.65
33163;BME280;29282;45.656;11.302;2024-01-16T12:14:05;97738.38;;;19.38;40.88
33163;BME280;29282;45.656;11.302;2024-01-16T12:16:30;97740.75;;;19.40;40.65
33163;BME280;29282;45.656;11.302;2024-01-16T12:19:08;97729.16;;;19.46;40.19
33163;BME280;29282;45.656;11.302;2024-01-16T12:21:44;97726.16;;;19.52;39.47
33163;BME280;29282;45.656;11.302;2024-01-16T12:24:11;97737.13;;;19.52;40.26
33163;BME280;29282;45.656;11.302;2024-01-16T12:26:37;97730.47;;;19.53;39.41
33163;BME280;29282;45.656;11.302;2024-01-16T12:29:03;97734.03;;;19.53;39.31
33163;BME280;29282;45.656;11.302;2024-01-16T12:31:29;97726.94;;;19.52;39.02
33163;BME280;29282;45.656;11.302;2024-01-16T12:34:05;97729.69;;;19.52;39.43
33163;BME280;29282;45.656;11.302;2024-01-16T12:36:31;97718.25;;;19.50;38.97
33163;BME280;29282;45.656;11.302;2024-01-16T12:38:56;97711.16;;;19.49;38.88
33163;BME280;29282;45.656;11.302;2024-01-16T12:41:23;97706.38;;;19.46;38.67
33163;BME280;29282;45.656;11.302;2024-01-16T12:43:52;97714.19;;;19.44;38.47
33163;BME280;29282;45.656;11.302;2024-01-16T12:46:18;97722.06;;;19.45;38.10
33163;BME280;29282;45.656;11.302;2024-01-16T12:48:44;97710.75;;;19.47;37.94
33163;BME280;29282;45.656;11.302;2024-01-16T12:51:20;97714.72;;;19.49;37.78
33163;BME280;29282;45.656;11.302;2024-01-16T12:53:46;97715.94;;;19.52;37.49
33163;BME280;29282;45.656;11.302;2024-01-16T12:56:12;97707.38;;;19.54;37.34
33163;BME280;29282;45.656;11.302;2024-01-16T12:58:38;97703.47;;;19.55;38.04
33163;BME280;29282;45.656;11.302;2024-01-16T13:01:27;97694.13;;;19.59;38.16